createdAt,value
2019-03-16T00:03:47.842Z,60.40
2019-03-16T00:07:51.447Z,60.68
2019-03-16T00:11:55.160Z,60.24
2019-03-16T00:15:59.021Z,60.68
2019-03-16T00:20:02.596Z,60.49
2019-03-16T00:24:06.317Z,60.72
2019-03-16T00:28:09.967Z,60.69
2019-03-16T00:32:13.942Z,60.53
2019-03-16T00:36:17.763Z,60.47
2019-03-16T00:40:21.441Z,60.47
2019-03-16T00:44:25.120Z,60.50
2019-03-16T00:48:28.778Z,60.85
2019-03-16T00:52:32.401Z,61.19
2019-03-16T00:56:36.055Z,60.58
2019-03-16T01:00:39.749Z,60.15
2019-03-16T01:04:43.378Z,60.44
2019-03-16T01:08:46.988Z,60.70
2019-03-16T01:12:50.706Z,60.76
2019-03-16T01:16:54.326Z,60.05
2019-03-16T01:20:58.007Z,60.26
2019-03-16T01:25:01.784Z,60.41
2019-03-16T01:29:05.490Z,60.73
2019-03-16T01:33:09.196Z,60.98
2019-03-16T01:37:12.737Z,60.75
2019-03-16T01:41:16.370Z,61.06
2019-03-16T01:45:20.038Z,60.76
2019-03-16T01:49:23.723Z,60.90
2019-03-16T01:53:27.409Z,60.82
2019-03-16T01:57:31.094Z,60.83
2019-03-16T02:01:34.845Z,61.04
2019-03-16T02:05:38.605Z,61.00
2019-03-16T02:09:42.162Z,61.10
2019-03-16T02:13:45.860Z,61.16
2019-03-16T02:17:49.577Z,61.20
2019-03-16T02:21:53.192Z,60.92
2019-03-16T02:25:56.811Z,61.21
2019-03-16T02:30:03.263Z,61.04
2019-03-16T02:34:06.979Z,61.50
2019-03-16T02:38:10.657Z,61.68
2019-03-16T02:42:14.282Z,61.61
2019-03-16T02:46:18.040Z,61.68
2019-03-16T02:50:21.772Z,61.60
2019-03-16T02:54:25.459Z,61.94
2019-03-16T02:58:29.081Z,62.03
2019-03-16T03:02:32.911Z,62.52
2019-03-16T03:06:36.482Z,62.72
2019-03-16T03:10:41.239Z,61.90
2019-03-16T03:14:44.857Z,62.17
2019-03-16T03:18:49.879Z,62.16
2019-03-16T03:22:53.843Z,62.37
2019-03-16T03:26:57.448Z,62.15
2019-03-16T03:31:01.009Z,62.57
2019-03-16T03:35:05.725Z,62.80
2019-03-16T03:39:09.431Z,62.83
2019-03-16T03:43:13.249Z,62.87
2019-03-16T03:47:17.504Z,62.98
2019-03-16T03:51:21.284Z,63.06
2019-03-16T03:55:25.162Z,63.21
2019-03-16T03:59:28.821Z,63.20
2019-03-16T04:03:32.807Z,63.32
2019-03-16T04:07:36.728Z,63.37
2019-03-16T04:11:40.311Z,63.26
2019-03-16T04:15:43.874Z,63.25
2019-03-16T04:19:47.563Z,63.04
2019-03-16T04:23:51.436Z,63.42
2019-03-16T04:27:55.134Z,63.45
2019-03-16T04:31:58.816Z,63.77
2019-03-16T04:36:02.567Z,63.42
2019-03-16T04:40:08.746Z,63.35
2019-03-16T04:44:12.483Z,63.60
2019-03-16T04:48:16.166Z,63.62
2019-03-16T04:52:19.835Z,63.38
2019-03-16T04:56:23.539Z,63.39
2019-03-16T05:00:27.219Z,63.49
2019-03-16T05:04:42.033Z,63.71
2019-03-16T05:08:36.192Z,63.81
2019-03-16T05:12:39.943Z,63.92
2019-03-16T05:16:43.528Z,64.03
2019-03-16T05:20:47.394Z,64.08
2019-03-16T05:24:51.003Z,64.14
2019-03-16T05:28:54.705Z,63.87
2019-03-16T05:32:58.454Z,64.18
2019-03-16T05:37:02.154Z,64.23
2019-03-16T05:41:05.903Z,63.95
2019-03-16T05:45:10.146Z,63.47
2019-03-16T05:49:13.813Z,63.70
2019-03-16T05:53:18.065Z,63.51
2019-03-16T05:57:21.772Z,63.38
2019-03-16T06:01:25.448Z,63.26
2019-03-16T06:05:29.191Z,63.18
2019-03-16T06:09:32.957Z,63.07
2019-03-16T06:13:36.777Z,62.91
2019-03-16T06:17:40.693Z,62.67
2019-03-16T06:21:44.819Z,62.47
2019-03-16T06:25:48.789Z,62.34
2019-03-16T06:29:52.410Z,62.11
2019-03-16T06:33:56.236Z,62.06
2019-03-16T06:37:59.891Z,61.43
2019-03-16T06:42:03.672Z,61.02
2019-03-16T06:46:07.559Z,60.50
2019-03-16T06:50:15.521Z,60.47
2019-03-16T06:54:19.305Z,60.04
2019-03-16T06:58:22.891Z,59.79
2019-03-16T07:02:26.522Z,60.27
2019-03-16T07:06:30.317Z,59.82
2019-03-16T07:10:34.087Z,60.04
2019-03-16T07:14:37.843Z,59.43
2019-03-16T07:18:42.381Z,59.62
2019-03-16T07:22:46.001Z,59.35
2019-03-16T07:26:49.670Z,59.48
2019-03-16T07:30:53.321Z,58.91
2019-03-16T07:34:57.025Z,60.00
2019-03-16T07:39:00.659Z,59.56
2019-03-16T07:43:04.303Z,59.00
2019-03-16T07:47:07.980Z,58.90
2019-03-16T07:51:12.670Z,59.74
2019-03-16T07:55:16.276Z,59.33
2019-03-16T07:59:19.830Z,58.71
2019-03-16T08:03:23.438Z,58.72
2019-03-16T08:07:27.195Z,58.82
2019-03-16T08:11:30.754Z,58.54
2019-03-16T08:15:34.507Z,58.79
2019-03-16T08:19:38.129Z,58.23
2019-03-16T08:23:42.120Z,58.02
2019-03-16T08:27:54.039Z,59.07
2019-03-16T08:31:51.401Z,58.87
2019-03-16T08:35:55.184Z,58.50
2019-03-16T08:39:58.939Z,59.06
2019-03-16T08:44:02.670Z,59.29
2019-03-16T08:48:06.376Z,59.12
2019-03-16T08:52:10.081Z,58.88
2019-03-16T08:56:13.985Z,58.29
2019-03-16T09:00:18.089Z,58.56
2019-03-16T09:04:21.900Z,58.71
2019-03-16T09:08:25.435Z,59.35
2019-03-16T09:12:28.994Z,59.08
2019-03-16T09:16:32.878Z,58.81
2019-03-16T09:20:36.629Z,58.28
2019-03-16T09:24:41.205Z,59.45
2019-03-16T09:28:44.859Z,59.00
2019-03-16T09:32:48.664Z,59.04
2019-03-16T09:36:52.344Z,60.50
2019-03-16T09:40:56.025Z,60.47
2019-03-16T09:44:59.614Z,60.44
2019-03-16T09:49:03.288Z,61.46
2019-03-16T09:53:06.908Z,62.14
2019-03-16T09:57:10.594Z,62.33
2019-03-16T10:01:15.448Z,61.95
2019-03-16T10:05:19.090Z,62.13
2019-03-16T10:09:22.760Z,61.63
2019-03-16T10:13:26.440Z,60.51
2019-03-16T10:17:30.153Z,61.41
2019-03-16T10:21:33.681Z,60.29
2019-03-16T10:25:37.397Z,60.30
2019-03-16T10:29:41.145Z,60.71
2019-03-16T10:33:44.889Z,61.01
2019-03-16T10:37:48.515Z,60.97
2019-03-16T10:41:52.249Z,58.95
2019-03-16T10:45:58.044Z,59.15
2019-03-16T10:50:01.769Z,60.37
2019-03-16T10:54:05.479Z,59.08
2019-03-16T10:58:09.083Z,60.01
2019-03-16T11:02:12.763Z,60.44
2019-03-16T11:06:16.378Z,61.94
2019-03-16T11:10:23.195Z,62.55
2019-03-16T11:14:26.886Z,62.29
2019-03-16T11:18:30.746Z,62.32
2019-03-16T11:22:34.353Z,62.58
2019-03-16T11:26:37.974Z,63.96
2019-03-16T11:30:42.473Z,63.01
2019-03-16T11:34:46.195Z,62.96
2019-03-16T11:38:50.043Z,65.57
2019-03-16T11:42:54.068Z,65.45
2019-03-16T11:46:57.654Z,65.33
2019-03-16T11:51:01.397Z,67.32
2019-03-16T11:55:07.504Z,67.41
2019-03-16T11:59:21.054Z,66.33
2019-03-16T12:03:16.801Z,66.17
2019-03-16T12:07:20.410Z,67.26
2019-03-16T12:11:24.019Z,67.34
2019-03-16T12:15:27.872Z,68.90
2019-03-16T12:19:31.559Z,68.90
2019-03-16T12:23:35.165Z,68.71
2019-03-16T12:27:38.935Z,68.90
2019-03-16T12:31:42.813Z,70.66
2019-03-16T12:35:46.564Z,70.46
2019-03-16T12:39:50.376Z,69.93
2019-03-16T12:43:54.201Z,70.00
2019-03-16T12:47:57.853Z,70.45
2019-03-16T12:52:01.556Z,70.91
2019-03-16T12:56:05.240Z,70.79
2019-03-16T13:00:16.928Z,71.22
2019-03-16T13:04:22.250Z,70.89
2019-03-16T13:08:26.044Z,71.38
2019-03-16T13:12:29.997Z,71.83
2019-03-16T13:16:37.159Z,71.60
2019-03-16T13:20:40.161Z,71.67
2019-03-16T13:24:44.214Z,72.36
2019-03-16T13:28:48.357Z,71.72
2019-03-16T13:32:52.065Z,71.92
2019-03-16T13:36:55.962Z,71.37
2019-03-16T13:40:59.932Z,71.92
2019-03-16T13:45:03.871Z,71.85
2019-03-16T13:49:07.937Z,71.95
2019-03-16T13:53:14.870Z,72.30
2019-03-16T13:57:18.590Z,72.18
2019-03-16T14:01:23.858Z,72.70
2019-03-16T14:05:28.221Z,72.57
2019-03-16T14:09:31.917Z,72.85
2019-03-16T14:13:36.136Z,72.93
2019-03-16T14:17:40.305Z,72.88
2019-03-16T14:21:43.925Z,72.76
2019-03-16T14:25:47.796Z,72.87
2019-03-16T14:29:51.398Z,72.94
2019-03-16T14:33:55.330Z,73.14
2019-03-16T14:37:59.319Z,73.24
2019-03-16T14:42:03.391Z,73.47
2019-03-16T14:46:07.360Z,73.43
2019-03-16T14:50:20.346Z,73.43
2019-03-16T14:54:24.256Z,73.49
2019-03-16T14:58:28.882Z,73.69
2019-03-16T15:02:32.685Z,73.89
2019-03-16T15:06:36.515Z,73.92
2019-03-16T15:10:40.160Z,73.92
2019-03-16T15:14:44.494Z,74.06
2019-03-16T15:18:48.390Z,74.13
2019-03-16T15:22:53.523Z,74.29
2019-03-16T15:26:57.718Z,74.37
2019-03-16T15:31:01.559Z,74.31
2019-03-16T15:35:07.333Z,74.28
2019-03-16T15:39:11.408Z,74.25
2019-03-16T15:43:15.222Z,74.23
2019-03-16T15:47:19.000Z,74.16
2019-03-16T15:51:24.008Z,73.97
2019-03-16T15:55:28.424Z,73.98
2019-03-16T15:59:32.432Z,73.94
2019-03-16T16:03:36.137Z,74.10
2019-03-16T16:07:39.744Z,74.17
2019-03-16T16:11:43.487Z,74.19
2019-03-16T16:15:47.183Z,74.21
2019-03-16T16:19:50.887Z,74.31
2019-03-16T16:23:54.548Z,74.27
2019-03-16T16:27:58.145Z,74.24
2019-03-16T16:32:01.800Z,73.97
2019-03-16T16:36:08.314Z,73.74
2019-03-16T16:40:13.412Z,73.84
2019-03-16T16:44:17.096Z,73.82
2019-03-16T16:48:20.699Z,73.91
2019-03-16T16:52:24.509Z,73.81
2019-03-16T16:56:28.206Z,73.80
2019-03-16T17:00:32.080Z,73.76
2019-03-16T17:04:35.688Z,73.76
2019-03-16T17:08:39.290Z,73.84
2019-03-16T17:12:43.134Z,73.89
2019-03-16T17:16:47.964Z,73.98
2019-03-16T17:20:51.819Z,74.06
2019-03-16T17:24:55.944Z,73.78
2019-03-16T17:28:59.544Z,73.62
2019-03-16T17:33:03.514Z,73.66
2019-03-16T17:37:07.118Z,73.79
2019-03-16T17:41:10.870Z,74.02
2019-03-16T17:45:14.944Z,74.11
2019-03-16T17:49:18.581Z,73.78
2019-03-16T17:53:22.217Z,73.51
2019-03-16T17:57:25.826Z,73.34
2019-03-16T18:01:29.427Z,73.43
2019-03-16T18:05:33.067Z,73.28
2019-03-16T18:09:37.275Z,73.34
2019-03-16T18:13:41.011Z,73.24
2019-03-16T18:17:44.826Z,73.08
2019-03-16T18:21:48.594Z,73.11
2019-03-16T18:25:52.543Z,72.79
2019-03-16T18:29:56.255Z,72.79
2019-03-16T18:34:00.074Z,72.46
2019-03-16T18:38:03.908Z,72.31
2019-03-16T18:42:07.865Z,71.68
2019-03-16T18:46:11.465Z,71.48
2019-03-16T18:50:15.215Z,71.47
2019-03-16T18:54:18.903Z,71.20
2019-03-16T18:58:36.305Z,70.63
2019-03-16T19:02:28.344Z,70.98
2019-03-16T19:06:32.308Z,70.37
2019-03-16T19:10:37.238Z,70.04
2019-03-16T19:14:40.923Z,69.96
2019-03-16T19:18:44.715Z,69.33
2019-03-16T19:22:48.666Z,68.95
2019-03-16T19:26:52.558Z,68.44
2019-03-16T19:30:57.051Z,68.55
2019-03-16T19:35:01.020Z,68.42
2019-03-16T19:39:06.534Z,68.02
2019-03-16T19:43:10.567Z,67.13
2019-03-16T19:47:14.538Z,67.57
2019-03-16T19:51:18.395Z,67.79
2019-03-16T19:55:22.184Z,66.97
2019-03-16T19:59:26.092Z,66.91
2019-03-16T20:03:29.983Z,66.76
2019-03-16T20:07:33.927Z,66.05
2019-03-16T20:11:38.129Z,66.43
2019-03-16T20:15:43.942Z,65.21
2019-03-16T20:19:48.720Z,65.40
2019-03-16T20:23:52.453Z,65.81
2019-03-16T20:27:56.215Z,65.30
2019-03-16T20:32:00.099Z,65.65
2019-03-16T20:36:04.067Z,65.53
2019-03-16T20:40:18.700Z,66.11
2019-03-16T20:44:22.642Z,65.77
2019-03-16T20:48:26.670Z,65.68
2019-03-16T20:52:30.531Z,65.18
2019-03-16T20:56:34.461Z,65.74
2019-03-16T21:00:38.359Z,64.87
2019-03-16T21:04:42.416Z,65.21
2019-03-16T21:08:46.585Z,64.76
2019-03-16T21:12:50.326Z,64.67
2019-03-16T21:16:54.151Z,64.28
2019-03-16T21:20:58.192Z,64.41
2019-03-16T21:25:01.773Z,64.46
2019-03-16T21:29:05.474Z,64.41
2019-03-16T21:33:09.326Z,63.96
2019-03-16T21:37:13.276Z,63.99
2019-03-16T21:41:16.981Z,63.99
2019-03-16T21:45:20.848Z,64.26
2019-03-16T21:49:24.604Z,64.10
2019-03-16T21:53:28.213Z,63.74
2019-03-16T21:57:32.476Z,63.42
2019-03-16T22:01:36.718Z,63.66
2019-03-16T22:05:40.560Z,63.49
2019-03-16T22:09:44.512Z,63.35
2019-03-16T22:13:48.289Z,62.75
2019-03-16T22:17:51.938Z,62.61
2019-03-16T22:21:55.468Z,63.20
2019-03-16T22:25:59.165Z,62.93
2019-03-16T22:30:02.930Z,62.37
2019-03-16T22:34:06.636Z,62.60
2019-03-16T22:38:10.310Z,61.47
2019-03-16T22:42:14.026Z,61.67
2019-03-16T22:46:17.927Z,61.75
2019-03-16T22:50:22.037Z,61.35
2019-03-16T22:54:25.668Z,61.60
2019-03-16T22:58:29.313Z,61.70
2019-03-16T23:02:33.029Z,61.65
2019-03-16T23:06:36.615Z,61.61
2019-03-16T23:10:40.250Z,61.64
2019-03-16T23:14:43.855Z,61.90
2019-03-16T23:18:47.556Z,61.52
2019-03-16T23:22:51.326Z,61.07
2019-03-16T23:26:54.996Z,61.10
2019-03-16T23:30:58.690Z,60.27
2019-03-16T23:35:02.563Z,60.33
2019-03-16T23:39:06.292Z,60.54
2019-03-16T23:43:10.013Z,60.90
2019-03-16T23:47:13.562Z,60.27
2019-03-16T23:51:18.090Z,60.36
2019-03-16T23:55:21.681Z,60.52
2019-03-16T23:59:25.434Z,60.46
